Terminal Aerodrome Forecast
Issued by NWS

Home | Current Version | Previous Version | Text Only | Print | Product List | Glossary On
Versions: 1 2 3 4 5 6 7 8 9 10 11 12 13 14 15
000
FTUS46 KSEW 020539
TAFBLI
TAF
KBLI 020539Z 0206/0306 16008KT P6SM SCT020 BKN045
      TEMPO 0206/0210 -SHRA BKN020 OVC045
     FM021400 18010KT P6SM -SHRA BKN020 OVC030
     FM021800 18010KT P6SM -SHRA SCT020 BKN035 BKN050
     FM022300 18010KT P6SM SCT035 BKN060=

USA.gov is the U.S. government's official web portal to all federal, state and local government web resources and services.